This is the latest recevied weather packets stored in our database for station/object PE1RXF-13. If no packets are shown the sender has not sent any weather packets the latest 10 day(s).
| Time | Temp. | Humidity | Pressure | Rain* | Wind** | Luminosity | Snow |
|---|---|---|---|---|---|---|---|
| 1777310055 | 12.22° C | 56% | 1022.9 hPa | 0 mm | - | 35 W/m² | - |
| 1777306455 | 13.89° C | 56% | 1022.9 hPa | 0 mm | - | 95 W/m² | - |
| 1777304656 | 13.89° C | 51% | 1023.1 hPa | 0 mm | - | 107 W/m² | - |
| 1777304655 | 13.89° C | 51% | 1023.1 hPa | 0 mm | - | 107 W/m² | - |
| 1777302856 | 13.89° C | 47% | 1023.3 hPa | 0 mm | - | 112 W/m² | - |
| 1777301056 | 15° C | 46% | 1023.6 hPa | 0 mm | - | 138 W/m² | - |
| 1777299256 | 15.56° C | 44% | 1024 hPa | 0 mm | - | 211 W/m² | - |
| 1777297457 | 15° C | 44% | 1024 hPa | 0 mm | - | 131 W/m² | - |
| 1777295657 | 15.56° C | 44% | 1024.2 hPa | 0 mm | - | 225 W/m² | - |
| 1777293856 | 15.56° C | 39% | 1024.4 hPa | 0 mm | - | 162 W/m² | - |
| 1777292056 | 15.56° C | 42% | 1024.5 hPa | 0 mm | - | 256 W/m² | - |
| 1777290256 | 14.44° C | 43% | 1024.6 hPa | 0 mm | - | 195 W/m² | - |
| 1777288456 | 15° C | 45% | 1024.7 hPa | 0 mm | - | 270 W/m² | - |
| 1777286656 | 13.33° C | 50% | 1024.9 hPa | 0 mm | - | 154 W/m² | - |
| 1777284856 | 12.78° C | 50% | 1025 hPa | 0 mm | - | 147 W/m² | - |
| 1777283056 | 12.22° C | 54% | 1025.2 hPa | 0 mm | - | 182 W/m² | - |
| 1777281256 | 11.11° C | 59% | 1025.4 hPa | 0 mm | - | 157 W/m² | - |
| 1777279456 | 11.67° C | 61% | 1025.5 hPa | 0 mm | - | 181 W/m² | - |
| 1777277656 | 10.56° C | 72% | 1025.5 hPa | 0 mm | - | 155 W/m² | - |
| 1777275856 | 10° C | 75% | 1025.7 hPa | 0 mm | - | 122 W/m² | - |
| 1777274056 | 8.33° C | 93% | 1025.7 hPa | 0 mm | - | 93 W/m² | - |
| 1777272256 | 7.22° C | 99% | 1025.9 hPa | 0 mm | - | 71 W/m² | - |
| 1777270455 | 4.44° C | 99% | 1025.8 hPa | 0 mm | - | 56 W/m² | - |
| 1777268655 | 2.78° C | 99% | 1025.7 hPa | 0 mm | - | 31 W/m² | - |
| 1777266856 | 1.11° C | 99% | 1025.4 hPa | 0 mm | - | 19 W/m² | - |
* Rain latest hour (hover to see other rain measurements)
** Current wind speed in m/s (hover to see current wind gust speed)